Latest Weather Observations for Fowlers Gap

IDN60801

Issued at 9:23 am EDT Friday 9 December 2022 (issued every 10 minutes, with the page automatically refreshed every 10 minutes)

About weather observations | Map of weather stations | Latest weather observations for NSW | Other Formats
Station Details ID: 046128 Name: FOWLERS GAP AWS Lat: -31.09 Lon: 141.70 Height: 181.0 m
Data from the previous 72 hours. | See also: Recent months at Fowlers Gap
Date/Time
EDT
Temp
°C
App
Temp
°C
Dew
Point
°C
Rel
Hum
%
Delta-T
°C
Wind Press
QNH
hPa
Press
MSL
hPa
Rain since
9am
mm
Dir  Spd
km/h
Gust
km/h
Spd
kts
Gust
kts
09/09:00am 17.4 13.9 3.3 39 6.6 E 11 15 6 8 1016.2 1015.1 0.0
09/08:30am 17.0 14.3 3.7 41 6.2 ENE 7 11 4 6 1016.2 1015.1 0.0
09/08:00am 16.5 12.5 2.9 40 6.2 E 13 17 7 9 1015.1 1014.0 0.0
09/07:30am 16.2 13.0 3.3 42 6.0 SE 9 13 5 7 1014.6 1013.6 0.0
09/07:00am 14.1 11.5 3.0 47 5.0 W 6 9 3 5 1014.5 1013.5 0.0
09/06:30am 14.0 10.8 2.9 47 5.0 SE 9 17 5 9 1013.8 1012.8 0.0
09/06:00am 13.0 9.3 2.3 48 4.7 SSE 11 15 6 8 1014.0 1013.0 0.0
09/05:30am 11.8 10.1 1.7 50 4.3 CALM 0 0 0 0 1013.9 1012.9 0.0
09/05:00am 12.2 9.3 1.5 48 4.6 WSW 6 7 3 4 1014.4 1013.4 0.0
09/04:30am 12.3 8.8 1.3 47 4.7 WSW 9 9 5 5 1014.5 1013.5 0.0
09/04:00am 13.1 10.0 1.5 45 5.0 WNW 7 9 4 5 1014.3 1013.3 0.0
09/03:30am 13.1 11.3 1.5 45 5.0 CALM 0 6 0 3 1014.5 1013.5 0.0
09/03:00am 13.8 10.4 1.8 44 5.3 SSE 9 11 5 6 1014.4 1013.4 0.0
09/02:30am 14.3 10.5 1.9 43 5.5 SSE 11 13 6 7 1014.4 1013.4 0.0
09/02:00am 14.5 10.7 1.8 42 5.6 SSE 11 13 6 7 1014.8 1013.8 0.0
09/01:30am 14.3 10.8 1.2 41 5.7 S 9 11 5 6 1015.3 1014.2 0.0
09/01:00am 15.2 11.7 1.4 39 6.1 SSE 9 13 5 7 1015.4 1014.3 0.0
09/12:30am 15.5 12.0 1.3 38 6.3 SSE 9 11 5 6 1016.2 1015.1 0.0
09/12:00am 15.9 12.3 0.9 36 6.6 S 9 11 5 6 1016.3 1015.2 0.0
 
Date/Time
EDT
Temp
°C
App
Temp
°C
Dew
Point
°C
Rel
Hum
%
Delta-T
°C
Wind Press
QNH
hPa
Press
MSL
hPa
Rain since
9am
mm
Dir  Spd
km/h
Gust
km/h
Spd
kts
Gust
kts
08/11:30pm 17.0 13.5 1.0 34 7.1 SSE 9 13 5 7 1016.2 1015.1 0.0
08/11:00pm 17.8 13.9 0.9 32 7.5 SE 11 13 6 7 1016.0 1014.9 0.0
08/10:30pm 18.3 14.4 0.9 31 7.8 SSE 11 15 6 8 1015.9 1014.8 0.0
08/10:00pm 19.3 14.1 0.4 28 8.4 SE 17 22 9 12 1015.2 1014.1 0.0
08/09:30pm 19.8 14.6 0.3 27 8.7 SSE 17 22 9 12 1014.7 1013.7 0.0
08/09:00pm 20.6 15.0 -0.1 25 9.3 SE 19 22 10 12 1014.5 1013.5 0.0
08/08:30pm 21.3 14.7 -0.6 23 9.8 SSE 24 33 13 18 1014.3 1013.3 0.0
08/08:00pm 22.2 15.5 -1.1 21 10.4 SSE 24 32 13 17 1014.0 1013.0 0.0
08/07:30pm 22.9 16.5 -1.9 19 10.9 SSE 22 28 12 15 1013.8 1012.8 0.0
08/07:00pm 23.7 17.5 -0.6 20 11.0 SSE 22 30 12 16 1013.1 1012.1 0.0
08/06:30pm 24.1 17.5 -0.2 20 11.2 SSE 24 33 13 18 1012.8 1011.8 0.0
08/06:00pm 24.0 17.4 -0.3 20 11.1 SSE 24 35 13 19 1012.8 1011.8 0.0
08/05:30pm 24.1 17.3 -1.7 18 11.5 SSE 24 33 13 18 1012.9 1011.9 0.0
08/05:00pm 24.4 17.8 -0.7 19 11.4 SSE 24 41 13 22 1012.8 1011.8 0.0
08/04:30pm 24.3 17.0 -3.1 16 11.9 SSE 26 39 14 21 1013.5 1012.5 0.0
08/04:00pm 23.8 16.5 -2.7 17 11.6 SSE 26 37 14 20 1013.5 1012.5 0.0
08/03:30pm 23.6 17.1 -2.8 17 11.5 SSE 22 33 12 18 1014.0 1013.0 0.0
08/03:00pm 23.5 16.9 -2.9 17 11.5 SSE 22 33 12 18 1014.0 1013.0 0.0
08/02:30pm 22.9 16.0 -2.6 18 11.1 SSE 24 41 13 22 1014.5 1013.5 0.0
08/02:00pm 21.8 15.0 -2.1 20 10.4 SSE 24 39 13 21 1015.1 1014.0 0.0
08/01:30pm 20.6 13.3 -2.5 21 9.8 SE 26 35 14 19 1015.5 1014.4 0.0
08/01:00pm 20.3 13.5 -2.1 22 9.6 SE 24 44 13 24 1015.6 1014.5 0.0
08/12:30pm 20.5 13.2 -0.2 25 9.2 SSE 28 41 15 22 1015.9 1014.8 0.0
08/12:00pm 19.2 12.7 0.3 28 8.4 SE 24 39 13 21 1016.2 1015.1 0.0
08/11:30am 18.4 11.9 0.5 30 8.0 SSE 24 33 13 18 1016.4 1015.4 0.0
08/11:00am 17.2 10.3 -0.1 31 7.5 SSE 26 37 14 20 1016.5 1015.5 0.0
08/10:30am 16.3 8.9 -0.4 32 7.1 SE 28 39 15 21 1016.7 1015.7 0.0
08/10:00am 16.4 9.2 0.9 35 6.8 SE 28 41 15 22 1016.7 1015.7 0.0
08/09:30am 15.3 8.7 1.8 40 6.0 SSE 26 39 14 21 1016.7 1015.7 0.0
08/09:00am 14.4 6.7 2.3 44 5.4 SE 32 41 17 22 1016.7 1015.7 0.2
08/08:30am 13.9 6.4 3.4 49 4.8 SSE 32 41 17 22 1016.4 1015.4 0.2
08/08:00am 13.2 6.1 3.3 51 4.5 SSE 30 41 16 22 1016.0 1014.9 0.2
08/07:30am 12.6 5.5 3.8 55 4.0 S 30 41 16 22 1015.6 1014.5 0.2
08/07:00am 12.4 7.9 6.0 65 3.0 S 19 26 10 14 1014.9 1013.9 0.2
08/06:30am 12.2 6.3 5.8 65 3.0 SSE 26 37 14 20 1014.4 1013.4 0.2
08/06:00am 12.8 5.2 5.9 63 3.3 SSE 35 48 19 26 1014.0 1013.0 0.2
08/05:39am 13.2 6.2 6.1 62 3.4 SSE 32 50 17 27 1013.8 1012.8 0.2
08/05:30am 13.3 7.1 6.2 62 3.4 SSE 28 39 15 21 1013.7 1012.7 0.2
08/05:01am 13.8 7.2 6.2 60 3.7 SSE 30 50 16 27 1013.4 1012.4 0.2
08/05:00am 13.8 7.2 6.2 60 3.7 SSE 30 41 16 22 1013.4 1012.4 0.2
08/04:55am 13.9 7.0 6.3 60 3.7 SSE 32 50 17 27 1013.4 1012.4 0.2
08/04:30am 14.3 8.4 5.7 56 4.1 SSE 26 35 14 19 1013.3 1012.3 0.2
08/04:00am 15.0 8.3 5.5 53 4.6 SSE 30 43 16 23 1013.2 1012.2 0.2
08/03:30am 15.5 8.8 5.4 51 4.9 SSE 30 41 16 22 1012.9 1011.9 0.2
08/03:00am 16.1 9.4 5.4 49 5.2 SSE 30 41 16 22 1012.6 1011.6 0.2
08/02:30am 16.7 10.6 5.0 46 5.6 SSE 26 37 14 20 1012.6 1011.6 0.2
08/02:00am 17.3 10.3 3.9 41 6.3 SSE 30 41 16 22 1012.5 1011.5 0.2
08/01:30am 17.9 10.5 3.8 39 6.7 SSE 32 41 17 22 1012.4 1011.4 0.2
08/01:00am 18.5 11.4 3.6 37 7.1 SSE 30 46 16 25 1012.3 1011.3 0.2
08/12:30am 19.1 11.6 3.3 35 7.5 SSE 32 44 17 24 1012.3 1011.3 0.2
08/12:00am 19.8 12.3 3.5 34 7.8 SSE 32 44 17 24 1012.2 1011.2 0.2
 
Date/Time
EDT
Temp
°C
App
Temp
°C
Dew
Point
°C
Rel
Hum
%
Delta-T
°C
Wind Press
QNH
hPa
Press
MSL
hPa
Rain since
9am
mm
Dir  Spd
km/h
Gust
km/h
Spd
kts
Gust
kts
07/11:30pm 20.9 13.9 4.0 33 8.2 SSE 30 43 16 23 1011.9 1010.9 0.2
07/11:00pm 21.9 15.0 4.5 32 8.6 SSE 30 41 16 22 1011.3 1010.2 0.2
07/10:44pm 22.6 15.3 4.6 31 8.9 SSE 32 48 17 26 1010.9 1009.8 0.2
07/10:30pm 23.2 17.7 6.1 33 8.8 S 24 30 13 16 1010.4 1009.3 0.2
07/10:00pm 23.8 18.7 6.1 32 9.1 S 22 30 12 16 1009.7 1008.6 0.2
07/09:30pm 24.6 19.4 7.3 33 9.2 S 24 33 13 18 1009.3 1008.2 0.2
07/09:00pm 25.2 20.7 8.7 35 9.0 S 22 28 12 15 1008.7 1007.7 0.2
07/08:30pm 25.9 20.7 10.1 37 8.8 S 28 39 15 21 1008.1 1007.1 0.2
07/08:00pm 26.8 20.7 9.6 34 9.6 S 32 46 17 25 1007.6 1006.6 0.2
07/07:30pm 27.9 22.2 9.7 32 10.2 S 30 46 16 25 1007.0 1006.0 0.2
07/07:00pm 28.9 23.3 10.1 31 10.7 S 30 39 16 21 1006.5 1005.4 0.2
07/06:30pm 29.0 23.1 10.6 32 10.5 S 32 43 17 23 1006.1 1005.0 0.2
07/06:00pm 29.7 25.8 12.2 34 10.3 S 24 33 13 18 1005.7 1004.6 0.2
07/05:30pm 29.9 24.5 12.3 33 10.4 S 32 44 17 24 1005.5 1004.4 0.2
07/05:04pm 29.9 25.3 12.3 33 10.4 S 28 54 15 29 1005.3 1004.2 0.2
07/05:00pm 30.6 27.2 12.5 33 10.8 SSW 22 32 12 17 1005.3 1004.2 0.2
07/04:30pm 29.7 26.6 12.2 34 10.3 SSW 20 30 11 16 1005.4 1004.3 0.2
07/04:00pm 30.2 27.2 12.1 32 10.7 S 19 28 10 15 1005.3 1004.2 0.2
07/03:30pm 29.3 26.9 12.7 36 9.8 S 17 28 9 15 1005.4 1004.3 0.2
07/03:00pm 29.3 26.4 12.3 35 10.0 SSE 19 28 10 15 1005.5 1004.4 0.2
07/02:30pm 28.7 26.7 12.6 37 9.5 SE 15 20 8 11 1005.5 1004.4 0.2
07/02:00pm 29.9 28.5 12.3 33 10.4 SSW 11 15 6 8 1007.1 1006.1 0.0
07/01:30pm 30.9 28.5 11.3 30 11.4 ESE 15 24 8 13 1005.4 1004.3 0.0
07/01:00pm 31.5 28.5 10.8 28 12.1 E 17 22 9 12 1005.8 1004.7 0.0
07/12:30pm 30.4 28.0 11.4 31 11.1 E 15 22 8 12 1006.0 1004.9 0.0
07/12:00pm 29.7 26.6 10.3 30 11.1 SE 17 22 9 12 1006.2 1005.1 0.0
07/11:30am 28.3 26.1 10.9 34 10.0 E 13 17 7 9 1006.6 1005.6 0.0
07/11:00am 27.2 24.8 11.3 37 9.2 E 15 19 8 10 1006.7 1005.7 0.0
07/10:30am 27.3 25.2 11.3 37 9.2 E 13 20 7 11 1006.3 1005.2 0.0
07/10:00am 26.7 25.1 11.6 39 8.7 ESE 11 15 6 8 1006.8 1005.8 0.0
07/09:30am 26.1 24.1 11.5 40 8.4 ESE 13 17 7 9 1006.5 1005.4 0.0
07/09:00am 25.3 22.9 11.5 42 7.9 SE 15 20 8 11 1006.3 1005.2 0.0
07/08:30am 25.2 22.6 10.6 39 8.2 SE 15 20 8 11 1006.1 1005.0 0.0
07/08:00am 24.7 22.5 10.9 42 7.8 NE 13 19 7 10 1005.2 1004.1 0.0
07/07:30am 24.4 20.5 12.0 46 7.1 NNE 24 35 13 19 1004.5 1003.4 0.0
07/07:13am 22.4 19.2 13.2 56 5.3 N 22 35 12 19 1004.8 1003.7 0.0
07/07:00am 23.0 20.7 10.4 45 7.0 NNW 13 19 7 10 1006.8 1005.8 0.0
07/06:30am 23.7 23.1 10.4 43 7.4 N 4 15 2 8 1005.4 1004.3 0.0
07/06:00am 22.4 20.3 9.9 45 6.9 ENE 11 15 6 8 1005.1 1004.0 0.0
07/05:30am 21.7 21.0 11.4 52 5.8 N 6 9 3 5 1006.0 1004.9 0.0
07/05:00am 21.5 20.3 11.5 53 5.6 SSW 9 13 5 7 1006.5 1005.4 0.0
07/04:30am 23.2 19.9 6.5 34 8.6 WSW 13 20 7 11 1006.8 1005.8 0.0
07/04:27am 23.4 20.9 6.7 34 8.7 W 9 19 5 10 1006.7 1005.7 0.0
07/04:00am 22.9 20.0 6.6 35 8.5 NE 11 15 6 8 1004.7 1003.6 0.0
07/03:30am 23.6 20.6 6.0 32 9.0 E 11 17 6 9 1004.7 1003.6 0.0
07/03:00am 23.8 21.6 6.1 32 9.1 E 7 11 4 6 1005.6 1004.5 0.0
07/02:30am 24.0 19.8 5.8 31 9.3 E 17 32 9 17 1005.5 1004.4 0.0
07/02:00am 22.9 20.4 6.6 35 8.5 ENE 9 13 5 7 1006.2 1005.1 0.0
07/01:30am 22.8 20.5 7.4 37 8.1 NE 9 13 5 7 1006.5 1005.4 0.0
07/01:00am 23.3 21.3 7.0 35 8.5 ESE 7 11 4 6 1007.3 1006.3 0.0
07/12:30am 24.0 21.1 6.7 33 9.0 NE 11 15 6 8 1006.8 1005.8 0.0
07/12:00am 23.5 21.6 7.6 36 8.4 SE 7 11 4 6 1007.7 1006.7 0.0
 
Date/Time
EDT
Temp
°C
App
Temp
°C
Dew
Point
°C
Rel
Hum
%
Delta-T
°C
Wind Press
QNH
hPa
Press
MSL
hPa
Rain since
9am
mm
Dir  Spd
km/h
Gust
km/h
Spd
kts
Gust
kts
06/11:30pm 24.0 22.2 7.2 34 8.8 S 6 7 3 4 1008.2 1007.2 0.0
06/11:00pm 23.6 21.6 8.5 38 8.1 ENE 9 11 5 6 1007.8 1006.8 0.0
06/10:30pm 25.4 22.3 7.1 31 9.7 E 13 17 7 9 1008.0 1007.0 0.0
06/10:00pm 26.1 23.0 7.2 30 10.1 ESE 13 19 7 10 1008.2 1007.2 0.0
06/09:30pm 26.7 23.2 7.2 29 10.4 ESE 15 19 8 10 1008.5 1007.5 0.0
06/09:00pm 27.0 24.7 7.5 29 10.5 E 9 11 5 6 1008.1 1007.1 0.0
06/08:30pm 27.8 25.9 7.6 28 10.9 ENE 7 9 4 5 1008.0 1007.0 0.0
06/08:00pm 28.7 26.7 7.3 26 11.6 E 7 9 4 5 1007.9 1006.9 0.0
06/07:30pm 29.5 27.2 7.4 25 12.0 E 9 11 5 6 1007.6 1006.6 0.0
06/07:00pm 29.6 27.6 6.9 24 12.3 ENE 7 11 4 6 1007.0 1006.0 0.0
06/06:30pm 29.5 26.3 6.8 24 12.2 ENE 13 17 7 9 1006.6 1005.6 0.0
06/06:00pm 30.0 26.9 7.2 24 12.4 E 13 17 7 9 1006.8 1005.8 0.0
06/05:30pm 30.4 28.0 7.0 23 12.7 SSE 9 15 5 8 1007.1 1006.1 0.0
06/05:00pm 29.6 27.0 6.3 23 12.5 SSE 9 15 5 8 1007.5 1006.5 0.0
06/04:30pm 29.6 26.5 5.6 22 12.7 E 11 19 6 10 1007.8 1006.8 0.0
06/04:00pm 29.8 26.5 6.5 23 12.5 SE 13 19 7 10 1008.1 1007.1 0.0
06/03:30pm 28.2 25.5 5.7 24 11.8 NE 9 17 5 9 1008.5 1007.5 0.0
06/03:00pm 28.9 26.7 6.3 24 12.1 SE 7 15 4 8 1008.8 1007.8 0.0
06/02:30pm 28.3 24.5 5.8 24 11.8 SE 15 20 8 11 1009.8 1008.7 0.0
06/02:00pm 26.6 23.1 5.5 26 11.0 S 13 19 7 10 1010.6 1009.5 0.0
06/01:30pm 26.8 24.1 5.7 26 11.0 SSW 9 15 5 8 1010.9 1009.8 0.0
06/01:00pm 27.0 24.8 6.4 27 10.9 SE 7 15 4 8 1011.2 1010.1 0.0
06/12:30pm 25.4 23.3 6.6 30 9.9 SE 7 13 4 7 1011.0 1009.9 0.0
06/12:00pm 25.3 22.1 7.0 31 9.7 E 13 20 7 11 1010.8 1009.7 0.0
06/11:30am 24.7 20.6 6.4 31 9.5 E 17 20 9 11 1010.8 1009.7 0.0
06/11:00am 23.2 19.1 6.1 33 8.8 ENE 17 24 9 13 1010.7 1009.6 0.0
06/10:30am 23.0 19.4 6.7 35 8.4 E 15 22 8 12 1011.6 1010.6 0.0
06/10:00am 22.3 18.2 6.1 35 8.3 ESE 17 24 9 13 1011.5 1010.5 0.0
06/09:30am 21.7 17.2 6.0 36 8.0 E 19 24 10 13 1011.4 1010.3 0.0

Other formats

Comma delimited format used in spreadsheet applications
http://www.bom.gov.au/fwo/IDN60801/IDN60801.94686.axf

JavaScript Object Notation format (JSON) in row-major order
http://www.bom.gov.au/fwo/IDN60801/IDN60801.94686.json

Data quality

Most of these data are generated automatically and are frequently updated. Quality checks on data are not normally performed. It is possible for incorrect values to appear. Refer to information at About Latest Weather Observations and please check the disclaimer before using these data.